sensor_id;sensor_type;location;lat;lon;timestamp;P1;durP1;ratioP1;P2;durP2;ratioP2
21315;SDS011;10817;55.820;13.030;2023-05-18T00:01:20;11.18;;;3.05;;
21315;SDS011;10817;55.820;13.030;2023-05-18T00:03:47;11.15;;;2.72;;
21315;SDS011;10817;55.820;13.030;2023-05-18T00:06:18;9.77;;;2.60;;
21315;SDS011;10817;55.820;13.030;2023-05-18T00:08:48;11.65;;;2.38;;
21315;SDS011;10817;55.820;13.030;2023-05-18T00:11:15;11.25;;;3.00;;
21315;SDS011;10817;55.820;13.030;2023-05-18T00:13:42;14.35;;;3.78;;
21315;SDS011;10817;55.820;13.030;2023-05-18T00:16:09;9.93;;;2.50;;
21315;SDS011;10817;55.820;13.030;2023-05-18T00:18:39;6.47;;;2.35;;
21315;SDS011;10817;55.820;13.030;2023-05-18T00:21:06;10.75;;;3.40;;
21315;SDS011;10817;55.820;13.030;2023-05-18T00:23:34;12.30;;;2.92;;
21315;SDS011;10817;55.820;13.030;2023-05-18T00:26:04;8.18;;;2.75;;
21315;SDS011;10817;55.820;13.030;2023-05-18T00:28:32;12.00;;;2.65;;
21315;SDS011;10817;55.820;13.030;2023-05-18T00:30:59;9.25;;;2.42;;
21315;SDS011;10817;55.820;13.030;2023-05-18T00:33:26;8.55;;;2.90;;
21315;SDS011;10817;55.820;13.030;2023-05-18T00:35:53;11.32;;;2.53;;
21315;SDS011;10817;55.820;13.030;2023-05-18T00:38:21;11.80;;;2.60;;
21315;SDS011;10817;55.820;13.030;2023-05-18T00:40:48;13.77;;;2.75;;
21315;SDS011;10817;55.820;13.030;2023-05-18T00:43:17;23.00;;;3.50;;
21315;SDS011;10817;55.820;13.030;2023-05-18T00:45:44;18.40;;;4.00;;
21315;SDS011;10817;55.820;13.030;2023-05-18T00:48:11;12.80;;;3.67;;
21315;SDS011;10817;55.820;13.030;2023-05-18T00:50:38;14.85;;;3.45;;
21315;SDS011;10817;55.820;13.030;2023-05-18T00:53:06;13.52;;;2.95;;
21315;SDS011;10817;55.820;13.030;2023-05-18T00:55:35;18.77;;;3.78;;
21315;SDS011;10817;55.820;13.030;2023-05-18T00:58:02;15.40;;;3.25;;
21315;SDS011;10817;55.820;13.030;2023-05-18T01:00:31;13.32;;;3.20;;
21315;SDS011;10817;55.820;13.030;2023-05-18T01:03:02;13.45;;;2.85;;
21315;SDS011;10817;55.820;13.030;2023-05-18T01:05:29;10.88;;;3.38;;
21315;SDS011;10817;55.820;13.030;2023-05-18T01:07:57;15.05;;;3.00;;
21315;SDS011;10817;55.820;13.030;2023-05-18T01:10:27;16.55;;;3.15;;
21315;SDS011;10817;55.820;13.030;2023-05-18T01:12:55;12.40;;;3.30;;
21315;SDS011;10817;55.820;13.030;2023-05-18T01:15:25;11.32;;;2.88;;
21315;SDS011;10817;55.820;13.030;2023-05-18T01:18:08;11.25;;;2.90;;
21315;SDS011;10817;55.820;13.030;2023-05-18T01:20:40;8.68;;;2.80;;
21315;SDS011;10817;55.820;13.030;2023-05-18T01:23:26;11.27;;;2.90;;
21315;SDS011;10817;55.820;13.030;2023-05-18T01:26:03;19.73;;;3.58;;
21315;SDS011;10817;55.820;13.030;2023-05-18T01:28:33;14.82;;;2.85;;
21315;SDS011;10817;55.820;13.030;2023-05-18T01:31:00;16.30;;;3.33;;
21315;SDS011;10817;55.820;13.030;2023-05-18T01:33:30;10.80;;;3.22;;
21315;SDS011;10817;55.820;13.030;2023-05-18T01:35:58;18.77;;;3.95;;
21315;SDS011;10817;55.820;13.030;2023-05-18T01:38:26;19.52;;;3.50;;
21315;SDS011;10817;55.820;13.030;2023-05-18T01:40:55;13.40;;;3.72;;
21315;SDS011;10817;55.820;13.030;2023-05-18T01:43:26;18.63;;;4.30;;
21315;SDS011;10817;55.820;13.030;2023-05-18T01:45:57;21.05;;;4.28;;
21315;SDS011;10817;55.820;13.030;2023-05-18T01:48:26;16.77;;;3.72;;
21315;SDS011;10817;55.820;13.030;2023-05-18T01:50:54;12.00;;;3.30;;
21315;SDS011;10817;55.820;13.030;2023-05-18T01:53:24;13.05;;;3.53;;
21315;SDS011;10817;55.820;13.030;2023-05-18T01:55:52;14.02;;;2.70;;
21315;SDS011;10817;55.820;13.030;2023-05-18T01:58:20;10.43;;;3.05;;
21315;SDS011;10817;55.820;13.030;2023-05-18T02:00:50;13.32;;;3.40;;
21315;SDS011;10817;55.820;13.030;2023-05-18T02:03:17;14.18;;;3.50;;
21315;SDS011;10817;55.820;13.030;2023-05-18T02:05:44;11.85;;;2.80;;
21315;SDS011;10817;55.820;13.030;2023-05-18T02:08:12;13.65;;;3.58;;
21315;SDS011;10817;55.820;13.030;2023-05-18T02:10:40;11.18;;;2.65;;
21315;SDS011;10817;55.820;13.030;2023-05-18T02:13:07;13.95;;;3.20;;
21315;SDS011;10817;55.820;13.030;2023-05-18T02:15:34;15.65;;;3.38;;
21315;SDS011;10817;55.820;13.030;2023-05-18T02:18:03;6.70;;;2.85;;
21315;SDS011;10817;55.820;13.030;2023-05-18T02:20:33;8.70;;;2.88;;
21315;SDS011;10817;55.820;13.030;2023-05-18T02:23:02;11.07;;;3.80;;
21315;SDS011;10817;55.820;13.030;2023-05-18T02:25:30;8.02;;;3.00;;
21315;SDS011;10817;55.820;13.030;2023-05-18T02:27:57;8.25;;;2.40;;
21315;SDS011;10817;55.820;13.030;2023-05-18T02:30:24;9.52;;;2.58;;
21315;SDS011;10817;55.820;13.030;2023-05-18T02:32:53;9.38;;;2.72;;
21315;SDS011;10817;55.820;13.030;2023-05-18T02:35:22;8.65;;;2.70;;
21315;SDS011;10817;55.820;13.030;2023-05-18T02:37:50;11.63;;;2.80;;
21315;SDS011;10817;55.820;13.030;2023-05-18T02:40:18;9.20;;;2.40;;
21315;SDS011;10817;55.820;13.030;2023-05-18T02:42:45;10.80;;;2.80;;
21315;SDS011;10817;55.820;13.030;2023-05-18T02:45:12;12.43;;;3.42;;
21315;SDS011;10817;55.820;13.030;2023-05-18T02:47:41;8.35;;;2.80;;
21315;SDS011;10817;55.820;13.030;2023-05-18T02:50:09;10.48;;;2.75;;
21315;SDS011;10817;55.820;13.030;2023-05-18T02:52:39;16.17;;;3.10;;
21315;SDS011;10817;55.820;13.030;2023-05-18T02:55:09;11.18;;;2.78;;
21315;SDS011;10817;55.820;13.030;2023-05-18T02:57:54;8.02;;;2.75;;
21315;SDS011;10817;55.820;13.030;2023-05-18T03:00:30;11.43;;;3.60;;
21315;SDS011;10817;55.820;13.030;2023-05-18T03:02:57;7.88;;;2.85;;
21315;SDS011;10817;55.820;13.030;2023-05-18T03:05:26;7.50;;;2.85;;
21315;SDS011;10817;55.820;13.030;2023-05-18T03:07:54;8.07;;;3.15;;
21315;SDS011;10817;55.820;13.030;2023-05-18T03:10:22;9.68;;;3.25;;
21315;SDS011;10817;55.820;13.030;2023-05-18T03:12:49;7.13;;;2.28;;
21315;SDS011;10817;55.820;13.030;2023-05-18T03:15:16;12.88;;;3.08;;
21315;SDS011;10817;55.820;13.030;2023-05-18T03:17:44;7.88;;;2.85;;
21315;SDS011;10817;55.820;13.030;2023-05-18T03:20:12;11.13;;;3.40;;
21315;SDS011;10817;55.820;13.030;2023-05-18T03:22:39;8.10;;;3.10;;
21315;SDS011;10817;55.820;13.030;2023-05-18T03:25:08;19.77;;;3.53;;
21315;SDS011;10817;55.820;13.030;2023-05-18T03:27:36;11.68;;;2.75;;
21315;SDS011;10817;55.820;13.030;2023-05-18T03:30:04;12.40;;;3.17;;
21315;SDS011;10817;55.820;13.030;2023-05-18T03:32:32;11.75;;;3.10;;
21315;SDS011;10817;55.820;13.030;2023-05-18T03:35:01;9.18;;;2.67;;
21315;SDS011;10817;55.820;13.030;2023-05-18T03:37:29;9.93;;;3.05;;
21315;SDS011;10817;55.820;13.030;2023-05-18T03:39:57;8.52;;;3.40;;
21315;SDS011;10817;55.820;13.030;2023-05-18T03:42:27;11.43;;;2.92;;
21315;SDS011;10817;55.820;13.030;2023-05-18T03:44:56;10.52;;;2.90;;
21315;SDS011;10817;55.820;13.030;2023-05-18T03:47:23;12.00;;;3.22;;
21315;SDS011;10817;55.820;13.030;2023-05-18T03:49:51;8.40;;;3.45;;
21315;SDS011;10817;55.820;13.030;2023-05-18T03:52:19;9.07;;;2.97;;
21315;SDS011;10817;55.820;13.030;2023-05-18T03:54:48;6.53;;;2.80;;
21315;SDS011;10817;55.820;13.030;2023-05-18T03:57:15;9.50;;;3.17;;
21315;SDS011;10817;55.820;13.030;2023-05-18T03:59:44;12.55;;;3.83;;
21315;SDS011;10817;55.820;13.030;2023-05-18T04:02:11;10.80;;;3.38;;
21315;SDS011;10817;55.820;13.030;2023-05-18T04:04:40;13.45;;;3.63;;
21315;SDS011;10817;55.820;13.030;2023-05-18T04:07:10;17.73;;;3.63;;
21315;SDS011;10817;55.820;13.030;2023-05-18T04:09:38;15.07;;;3.60;;
21315;SDS011;10817;55.820;13.030;2023-05-18T04:12:05;15.05;;;4.18;;
21315;SDS011;10817;55.820;13.030;2023-05-18T04:14:32;16.63;;;4.13;;
21315;SDS011;10817;55.820;13.030;2023-05-18T04:17:02;15.80;;;4.38;;
21315;SDS011;10817;55.820;13.030;2023-05-18T04:19:30;14.93;;;4.07;;
21315;SDS011;10817;55.820;13.030;2023-05-18T04:21:58;13.52;;;3.83;;
21315;SDS011;10817;55.820;13.030;2023-05-18T04:24:25;13.30;;;3.90;;
21315;SDS011;10817;55.820;13.030;2023-05-18T04:26:52;13.50;;;3.70;;
21315;SDS011;10817;55.820;13.030;2023-05-18T04:29:20;14.55;;;3.75;;
21315;SDS011;10817;55.820;13.030;2023-05-18T04:31:47;17.65;;;3.70;;
21315;SDS011;10817;55.820;13.030;2023-05-18T04:34:16;8.52;;;3.30;;
21315;SDS011;10817;55.820;13.030;2023-05-18T04:36:44;12.57;;;3.92;;
21315;SDS011;10817;55.820;13.030;2023-05-18T04:39:12;16.00;;;3.63;;
21315;SDS011;10817;55.820;13.030;2023-05-18T04:41:40;14.05;;;3.67;;
21315;SDS011;10817;55.820;13.030;2023-05-18T04:44:07;8.43;;;3.30;;
21315;SDS011;10817;55.820;13.030;2023-05-18T04:46:34;13.27;;;4.05;;
21315;SDS011;10817;55.820;13.030;2023-05-18T04:49:08;16.88;;;3.50;;
21315;SDS011;10817;55.820;13.030;2023-05-18T04:51:37;12.93;;;3.58;;
21315;SDS011;10817;55.820;13.030;2023-05-18T04:54:06;12.32;;;2.80;;
21315;SDS011;10817;55.820;13.030;2023-05-18T04:56:34;19.15;;;3.42;;
21315;SDS011;10817;55.820;13.030;2023-05-18T04:59:01;15.13;;;3.10;;
21315;SDS011;10817;55.820;13.030;2023-05-18T05:01:28;16.25;;;3.58;;
21315;SDS011;10817;55.820;13.030;2023-05-18T05:03:55;14.60;;;3.40;;
21315;SDS011;10817;55.820;13.030;2023-05-18T05:06:23;14.18;;;3.67;;
21315;SDS011;10817;55.820;13.030;2023-05-18T05:08:52;16.25;;;4.00;;
21315;SDS011;10817;55.820;13.030;2023-05-18T05:11:20;14.43;;;3.55;;
21315;SDS011;10817;55.820;13.030;2023-05-18T05:13:47;15.27;;;3.00;;
21315;SDS011;10817;55.820;13.030;2023-05-18T05:16:14;13.45;;;3.15;;
21315;SDS011;10817;55.820;13.030;2023-05-18T05:18:41;16.70;;;2.67;;
21315;SDS011;10817;55.820;13.030;2023-05-18T05:21:08;17.85;;;2.95;;
21315;SDS011;10817;55.820;13.030;2023-05-18T05:23:36;14.15;;;2.72;;
21315;SDS011;10817;55.820;13.030;2023-05-18T05:26:05;12.57;;;2.90;;
21315;SDS011;10817;55.820;13.030;2023-05-18T05:28:32;15.13;;;3.10;;
21315;SDS011;10817;55.820;13.030;2023-05-18T05:31:00;8.88;;;2.53;;
21315;SDS011;10817;55.820;13.030;2023-05-18T05:33:28;12.15;;;2.70;;
21315;SDS011;10817;55.820;13.030;2023-05-18T05:35:55;18.98;;;3.38;;
21315;SDS011;10817;55.820;13.030;2023-05-18T05:38:23;12.55;;;2.47;;
21315;SDS011;10817;55.820;13.030;2023-05-18T05:40:51;7.28;;;2.47;;
21315;SDS011;10817;55.820;13.030;2023-05-18T05:43:20;18.20;;;3.20;;
21315;SDS011;10817;55.820;13.030;2023-05-18T05:45:47;9.70;;;2.45;;
21315;SDS011;10817;55.820;13.030;2023-05-18T05:48:15;11.25;;;2.67;;
21315;SDS011;10817;55.820;13.030;2023-05-18T05:50:42;9.85;;;2.58;;
21315;SDS011;10817;55.820;13.030;2023-05-18T05:53:10;11.60;;;2.50;;
21315;SDS011;10817;55.820;13.030;2023-05-18T05:55:42;18.23;;;3.08;;
21315;SDS011;10817;55.820;13.030;2023-05-18T05:58:12;16.88;;;3.38;;
21315;SDS011;10817;55.820;13.030;2023-05-18T06:00:44;13.88;;;2.30;;
21315;SDS011;10817;55.820;13.030;2023-05-18T06:03:13;14.13;;;2.70;;
21315;SDS011;10817;55.820;13.030;2023-05-18T06:05:43;13.02;;;2.53;;
21315;SDS011;10817;55.820;13.030;2023-05-18T06:08:11;15.00;;;3.17;;
21315;SDS011;10817;55.820;13.030;2023-05-18T06:10:40;11.40;;;2.60;;
21315;SDS011;10817;55.820;13.030;2023-05-18T06:13:08;12.82;;;2.60;;
21315;SDS011;10817;55.820;13.030;2023-05-18T06:15:41;12.40;;;2.60;;
21315;SDS011;10817;55.820;13.030;2023-05-18T06:18:10;10.50;;;2.55;;
21315;SDS011;10817;55.820;13.030;2023-05-18T06:20:37;11.38;;;2.45;;
21315;SDS011;10817;55.820;13.030;2023-05-18T06:23:05;13.63;;;2.53;;
21315;SDS011;10817;55.820;13.030;2023-05-18T06:26:10;14.88;;;2.83;;
21315;SDS011;10817;55.820;13.030;2023-05-18T06:28:49;12.90;;;2.78;;
21315;SDS011;10817;55.820;13.030;2023-05-18T06:31:48;11.13;;;2.58;;
21315;SDS011;10817;55.820;13.030;2023-05-18T06:34:22;14.75;;;2.75;;
21315;SDS011;10817;55.820;13.030;2023-05-18T06:36:49;21.08;;;3.80;;
21315;SDS011;10817;55.820;13.030;2023-05-18T06:39:16;16.30;;;2.85;;
21315;SDS011;10817;55.820;13.030;2023-05-18T06:41:44;10.60;;;3.05;;
21315;SDS011;10817;55.820;13.030;2023-05-18T06:44:19;11.77;;;3.08;;
21315;SDS011;10817;55.820;13.030;2023-05-18T06:47:04;15.25;;;2.85;;
21315;SDS011;10817;55.820;13.030;2023-05-18T06:49:33;13.32;;;3.15;;
21315;SDS011;10817;55.820;13.030;2023-05-18T06:52:01;14.98;;;3.13;;
21315;SDS011;10817;55.820;13.030;2023-05-18T06:54:28;14.07;;;2.67;;
21315;SDS011;10817;55.820;13.030;2023-05-18T06:56:56;14.55;;;3.03;;
21315;SDS011;10817;55.820;13.030;2023-05-18T06:59:23;10.73;;;2.60;;
21315;SDS011;10817;55.820;13.030;2023-05-18T07:01:50;14.02;;;2.15;;
21315;SDS011;10817;55.820;13.030;2023-05-18T07:04:17;11.05;;;2.53;;
21315;SDS011;10817;55.820;13.030;2023-05-18T07:06:46;15.43;;;2.50;;
21315;SDS011;10817;55.820;13.030;2023-05-18T07:09:13;13.82;;;2.63;;
21315;SDS011;10817;55.820;13.030;2023-05-18T07:11:41;13.40;;;2.80;;
21315;SDS011;10817;55.820;13.030;2023-05-18T07:14:09;14.25;;;3.35;;
21315;SDS011;10817;55.820;13.030;2023-05-18T07:16:36;9.90;;;2.67;;
21315;SDS011;10817;55.820;13.030;2023-05-18T07:19:04;16.00;;;2.80;;
21315;SDS011;10817;55.820;13.030;2023-05-18T07:21:31;13.38;;;2.65;;
21315;SDS011;10817;55.820;13.030;2023-05-18T07:24:00;11.80;;;2.65;;
21315;SDS011;10817;55.820;13.030;2023-05-18T07:26:27;12.25;;;2.38;;
21315;SDS011;10817;55.820;13.030;2023-05-18T07:28:54;9.13;;;2.65;;
21315;SDS011;10817;55.820;13.030;2023-05-18T07:31:21;13.70;;;2.70;;
21315;SDS011;10817;55.820;13.030;2023-05-18T07:33:49;10.93;;;2.50;;
21315;SDS011;10817;55.820;13.030;2023-05-18T07:36:16;13.93;;;2.80;;
21315;SDS011;10817;55.820;13.030;2023-05-18T07:38:43;9.60;;;2.58;;
21315;SDS011;10817;55.820;13.030;2023-05-18T07:41:12;11.23;;;2.65;;
21315;SDS011;10817;55.820;13.030;2023-05-18T07:43:39;10.70;;;3.00;;
21315;SDS011;10817;55.820;13.030;2023-05-18T07:46:06;13.75;;;2.90;;
21315;SDS011;10817;55.820;13.030;2023-05-18T07:48:33;14.68;;;2.47;;
21315;SDS011;10817;55.820;13.030;2023-05-18T07:51:00;18.27;;;3.35;;
21315;SDS011;10817;55.820;13.030;2023-05-18T07:53:28;10.05;;;2.28;;
21315;SDS011;10817;55.820;13.030;2023-05-18T07:55:55;8.40;;;2.22;;
21315;SDS011;10817;55.820;13.030;2023-05-18T07:58:23;9.18;;;2.25;;
21315;SDS011;10817;55.820;13.030;2023-05-18T08:00:51;11.55;;;2.70;;
21315;SDS011;10817;55.820;13.030;2023-05-18T08:03:18;11.32;;;2.13;;
21315;SDS011;10817;55.820;13.030;2023-05-18T08:05:45;7.45;;;2.03;;
21315;SDS011;10817;55.820;13.030;2023-05-18T08:08:12;11.40;;;2.45;;
21315;SDS011;10817;55.820;13.030;2023-05-18T08:10:40;16.20;;;2.65;;
21315;SDS011;10817;55.820;13.030;2023-05-18T08:13:07;14.77;;;2.55;;
21315;SDS011;10817;55.820;13.030;2023-05-18T08:15:38;13.57;;;2.65;;
21315;SDS011;10817;55.820;13.030;2023-05-18T08:18:05;8.93;;;2.58;;
21315;SDS011;10817;55.820;13.030;2023-05-18T08:20:32;10.38;;;2.33;;
21315;SDS011;10817;55.820;13.030;2023-05-18T08:23:00;11.82;;;2.70;;
21315;SDS011;10817;55.820;13.030;2023-05-18T08:25:27;12.85;;;3.13;;
21315;SDS011;10817;55.820;13.030;2023-05-18T08:27:54;13.27;;;3.58;;
21315;SDS011;10817;55.820;13.030;2023-05-18T08:30:21;12.20;;;2.33;;
21315;SDS011;10817;55.820;13.030;2023-05-18T08:32:51;19.23;;;3.63;;
21315;SDS011;10817;55.820;13.030;2023-05-18T08:35:18;11.65;;;2.55;;
21315;SDS011;10817;55.820;13.030;2023-05-18T08:37:45;13.23;;;2.35;;
21315;SDS011;10817;55.820;13.030;2023-05-18T08:40:14;9.38;;;2.35;;
21315;SDS011;10817;55.820;13.030;2023-05-18T08:42:43;14.20;;;2.40;;
21315;SDS011;10817;55.820;13.030;2023-05-18T08:45:14;10.73;;;2.65;;
21315;SDS011;10817;55.820;13.030;2023-05-18T08:47:44;10.40;;;2.50;;
21315;SDS011;10817;55.820;13.030;2023-05-18T08:50:13;7.85;;;2.45;;
21315;SDS011;10817;55.820;13.030;2023-05-18T08:52:41;11.63;;;2.45;;
21315;SDS011;10817;55.820;13.030;2023-05-18T08:55:12;9.98;;;2.42;;
21315;SDS011;10817;55.820;13.030;2023-05-18T08:57:41;12.05;;;2.38;;
21315;SDS011;10817;55.820;13.030;2023-05-18T09:00:09;9.73;;;2.00;;
21315;SDS011;10817;55.820;13.030;2023-05-18T09:02:37;8.55;;;2.50;;
21315;SDS011;10817;55.820;13.030;2023-05-18T09:05:05;12.45;;;2.22;;
21315;SDS011;10817;55.820;13.030;2023-05-18T09:07:34;13.82;;;2.60;;
21315;SDS011;10817;55.820;13.030;2023-05-18T09:10:02;13.15;;;3.03;;
21315;SDS011;10817;55.820;13.030;2023-05-18T09:12:29;8.70;;;2.65;;
21315;SDS011;10817;55.820;13.030;2023-05-18T09:14:58;14.23;;;2.85;;
21315;SDS011;10817;55.820;13.030;2023-05-18T09:17:25;15.68;;;2.67;;
21315;SDS011;10817;55.820;13.030;2023-05-18T09:19:52;15.65;;;2.53;;
21315;SDS011;10817;55.820;13.030;2023-05-18T09:22:20;9.20;;;2.60;;
21315;SDS011;10817;55.820;13.030;2023-05-18T09:24:48;11.40;;;2.33;;
21315;SDS011;10817;55.820;13.030;2023-05-18T09:27:15;13.35;;;2.95;;
21315;SDS011;10817;55.820;13.030;2023-05-18T09:29:50;12.45;;;2.83;;
21315;SDS011;10817;55.820;13.030;2023-05-18T09:32:18;11.88;;;2.78;;
21315;SDS011;10817;55.820;13.030;2023-05-18T09:34:45;9.07;;;2.65;;
21315;SDS011;10817;55.820;13.030;2023-05-18T09:37:14;11.52;;;2.38;;
21315;SDS011;10817;55.820;13.030;2023-05-18T09:39:42;10.90;;;2.00;;
21315;SDS011;10817;55.820;13.030;2023-05-18T09:42:11;11.25;;;2.53;;
21315;SDS011;10817;55.820;13.030;2023-05-18T09:44:38;6.28;;;2.00;;
21315;SDS011;10817;55.820;13.030;2023-05-18T09:47:06;12.35;;;2.95;;
21315;SDS011;10817;55.820;13.030;2023-05-18T09:49:34;9.57;;;2.63;;
21315;SDS011;10817;55.820;13.030;2023-05-18T09:52:06;11.30;;;2.60;;
21315;SDS011;10817;55.820;13.030;2023-05-18T09:54:34;16.00;;;2.42;;
21315;SDS011;10817;55.820;13.030;2023-05-18T09:57:02;11.45;;;2.33;;
21315;SDS011;10817;55.820;13.030;2023-05-18T09:59:31;8.65;;;2.45;;
21315;SDS011;10817;55.820;13.030;2023-05-18T10:02:01;7.50;;;2.20;;
21315;SDS011;10817;55.820;13.030;2023-05-18T10:04:36;9.18;;;2.13;;
21315;SDS011;10817;55.820;13.030;2023-05-18T10:07:10;8.23;;;2.13;;
21315;SDS011;10817;55.820;13.030;2023-05-18T10:09:38;12.20;;;2.10;;
21315;SDS011;10817;55.820;13.030;2023-05-18T10:12:14;11.93;;;2.40;;
21315;SDS011;10817;55.820;13.030;2023-05-18T10:14:43;7.25;;;2.00;;
21315;SDS011;10817;55.820;13.030;2023-05-18T10:17:11;7.78;;;2.20;;
21315;SDS011;10817;55.820;13.030;2023-05-18T10:19:39;12.77;;;2.70;;
21315;SDS011;10817;55.820;13.030;2023-05-18T10:22:07;10.38;;;2.20;;
21315;SDS011;10817;55.820;13.030;2023-05-18T10:24:37;9.35;;;2.35;;
21315;SDS011;10817;55.820;13.030;2023-05-18T10:27:05;6.65;;;1.88;;
21315;SDS011;10817;55.820;13.030;2023-05-18T10:29:33;12.52;;;2.15;;
21315;SDS011;10817;55.820;13.030;2023-05-18T10:32:03;7.50;;;2.20;;
21315;SDS011;10817;55.820;13.030;2023-05-18T10:34:31;6.68;;;1.98;;
21315;SDS011;10817;55.820;13.030;2023-05-18T10:36:59;9.15;;;2.08;;
21315;SDS011;10817;55.820;13.030;2023-05-18T10:39:28;9.70;;;2.30;;
21315;SDS011;10817;55.820;13.030;2023-05-18T10:41:56;12.43;;;2.92;;
21315;SDS011;10817;55.820;13.030;2023-05-18T10:44:23;11.43;;;2.15;;
21315;SDS011;10817;55.820;13.030;2023-05-18T10:46:51;10.98;;;2.40;;
21315;SDS011;10817;55.820;13.030;2023-05-18T10:49:20;7.40;;;2.08;;
21315;SDS011;10817;55.820;13.030;2023-05-18T10:51:50;9.10;;;2.05;;
21315;SDS011;10817;55.820;13.030;2023-05-18T10:54:19;9.63;;;2.53;;
21315;SDS011;10817;55.820;13.030;2023-05-18T10:56:49;8.95;;;2.95;;
21315;SDS011;10817;55.820;13.030;2023-05-18T10:59:17;8.05;;;2.05;;
21315;SDS011;10817;55.820;13.030;2023-05-18T11:01:44;8.27;;;2.35;;
21315;SDS011;10817;55.820;13.030;2023-05-18T11:04:13;7.32;;;2.25;;
21315;SDS011;10817;55.820;13.030;2023-05-18T11:06:42;11.07;;;2.60;;
21315;SDS011;10817;55.820;13.030;2023-05-18T11:09:12;8.10;;;2.40;;
21315;SDS011;10817;55.820;13.030;2023-05-18T11:11:50;9.60;;;2.40;;
21315;SDS011;10817;55.820;13.030;2023-05-18T11:14:23;7.15;;;2.25;;
21315;SDS011;10817;55.820;13.030;2023-05-18T11:16:51;8.93;;;2.00;;
21315;SDS011;10817;55.820;13.030;2023-05-18T11:19:18;6.45;;;2.05;;
21315;SDS011;10817;55.820;13.030;2023-05-18T11:21:52;7.00;;;2.05;;
21315;SDS011;10817;55.820;13.030;2023-05-18T11:24:20;10.65;;;2.28;;
21315;SDS011;10817;55.820;13.030;2023-05-18T11:26:48;8.75;;;2.08;;
21315;SDS011;10817;55.820;13.030;2023-05-18T11:29:16;10.68;;;2.30;;
21315;SDS011;10817;55.820;13.030;2023-05-18T11:31:44;10.18;;;2.42;;
21315;SDS011;10817;55.820;13.030;2023-05-18T11:36:58;11.38;;;2.90;;
21315;SDS011;10817;55.820;13.030;2023-05-18T11:39:25;6.00;;;2.20;;
21315;SDS011;10817;55.820;13.030;2023-05-18T11:41:58;11.52;;;2.35;;
21315;SDS011;10817;55.820;13.030;2023-05-18T11:44:26;10.32;;;2.53;;
21315;SDS011;10817;55.820;13.030;2023-05-18T11:46:58;13.20;;;2.53;;
21315;SDS011;10817;55.820;13.030;2023-05-18T11:49:27;10.82;;;2.50;;
21315;SDS011;10817;55.820;13.030;2023-05-18T11:51:55;10.98;;;2.63;;
21315;SDS011;10817;55.820;13.030;2023-05-18T11:54:24;10.93;;;2.80;;
21315;SDS011;10817;55.820;13.030;2023-05-18T11:56:52;10.45;;;2.65;;
21315;SDS011;10817;55.820;13.030;2023-05-18T11:59:29;12.35;;;2.95;;
21315;SDS011;10817;55.820;13.030;2023-05-18T12:01:57;10.70;;;2.75;;
21315;SDS011;10817;55.820;13.030;2023-05-18T12:04:25;10.82;;;3.25;;
21315;SDS011;10817;55.820;13.030;2023-05-18T12:06:52;9.65;;;2.08;;
21315;SDS011;10817;55.820;13.030;2023-05-18T12:09:20;11.80;;;2.67;;
21315;SDS011;10817;55.820;13.030;2023-05-18T12:11:49;9.00;;;2.70;;
21315;SDS011;10817;55.820;13.030;2023-05-18T12:14:17;9.85;;;2.60;;
21315;SDS011;10817;55.820;13.030;2023-05-18T12:16:46;9.88;;;2.50;;
21315;SDS011;10817;55.820;13.030;2023-05-18T12:19:14;12.98;;;2.95;;
21315;SDS011;10817;55.820;13.030;2023-05-18T12:21:43;7.55;;;2.05;;
21315;SDS011;10817;55.820;13.030;2023-05-18T12:24:11;10.57;;;2.75;;
21315;SDS011;10817;55.820;13.030;2023-05-18T12:26:39;14.73;;;3.15;;
21315;SDS011;10817;55.820;13.030;2023-05-18T12:29:07;9.30;;;2.40;;
21315;SDS011;10817;55.820;13.030;2023-05-18T12:31:38;10.00;;;2.67;;
21315;SDS011;10817;55.820;13.030;2023-05-18T12:34:07;10.32;;;2.67;;
21315;SDS011;10817;55.820;13.030;2023-05-18T12:36:39;8.73;;;2.33;;
21315;SDS011;10817;55.820;13.030;2023-05-18T12:39:08;8.98;;;2.42;;
21315;SDS011;10817;55.820;13.030;2023-05-18T12:41:36;12.85;;;3.05;;
21315;SDS011;10817;55.820;13.030;2023-05-18T12:44:03;8.35;;;2.20;;
21315;SDS011;10817;55.820;13.030;2023-05-18T12:46:31;10.45;;;2.25;;
21315;SDS011;10817;55.820;13.030;2023-05-18T12:48:59;11.02;;;2.55;;
21315;SDS011;10817;55.820;13.030;2023-05-18T12:51:31;11.13;;;2.42;;
21315;SDS011;10817;55.820;13.030;2023-05-18T12:53:59;9.57;;;2.63;;
21315;SDS011;10817;55.820;13.030;2023-05-18T12:59:16;10.38;;;2.78;;
21315;SDS011;10817;55.820;13.030;2023-05-18T13:01:45;13.23;;;3.03;;
21315;SDS011;10817;55.820;13.030;2023-05-18T13:04:12;11.13;;;2.80;;
21315;SDS011;10817;55.820;13.030;2023-05-18T13:06:39;11.32;;;2.35;;
21315;SDS011;10817;55.820;13.030;2023-05-18T13:09:07;12.80;;;2.70;;
21315;SDS011;10817;55.820;13.030;2023-05-18T13:11:34;13.02;;;3.03;;
21315;SDS011;10817;55.820;13.030;2023-05-18T13:14:02;8.07;;;2.10;;
21315;SDS011;10817;55.820;13.030;2023-05-18T13:16:29;7.93;;;2.30;;
21315;SDS011;10817;55.820;13.030;2023-05-18T13:18:59;13.35;;;2.30;;
21315;SDS011;10817;55.820;13.030;2023-05-18T13:21:26;20.52;;;2.63;;
21315;SDS011;10817;55.820;13.030;2023-05-18T13:23:54;10.77;;;2.50;;
21315;SDS011;10817;55.820;13.030;2023-05-18T13:26:21;16.02;;;2.83;;
21315;SDS011;10817;55.820;13.030;2023-05-18T13:28:49;9.73;;;2.47;;
21315;SDS011;10817;55.820;13.030;2023-05-18T13:31:17;10.02;;;2.70;;
21315;SDS011;10817;55.820;13.030;2023-05-18T13:33:44;10.48;;;2.50;;
21315;SDS011;10817;55.820;13.030;2023-05-18T13:36:13;11.40;;;3.03;;
21315;SDS011;10817;55.820;13.030;2023-05-18T13:38:42;14.35;;;2.83;;
21315;SDS011;10817;55.820;13.030;2023-05-18T13:41:10;7.88;;;2.97;;
21315;SDS011;10817;55.820;13.030;2023-05-18T13:43:39;8.45;;;2.33;;
21315;SDS011;10817;55.820;13.030;2023-05-18T13:46:06;10.35;;;2.30;;
21315;SDS011;10817;55.820;13.030;2023-05-18T13:48:34;13.70;;;2.60;;
21315;SDS011;10817;55.820;13.030;2023-05-18T13:51:01;10.55;;;2.60;;
21315;SDS011;10817;55.820;13.030;2023-05-18T13:53:30;7.30;;;2.10;;
21315;SDS011;10817;55.820;13.030;2023-05-18T13:55:57;7.55;;;2.20;;
21315;SDS011;10817;55.820;13.030;2023-05-18T13:58:24;7.05;;;2.38;;
21315;SDS011;10817;55.820;13.030;2023-05-18T14:00:51;10.80;;;2.80;;
21315;SDS011;10817;55.820;13.030;2023-05-18T14:03:19;7.40;;;2.33;;
21315;SDS011;10817;55.820;13.030;2023-05-18T14:05:48;8.85;;;2.20;;
21315;SDS011;10817;55.820;13.030;2023-05-18T14:08:15;15.70;;;2.92;;
21315;SDS011;10817;55.820;13.030;2023-05-18T14:10:43;11.07;;;2.65;;
21315;SDS011;10817;55.820;13.030;2023-05-18T14:13:10;9.65;;;2.28;;
21315;SDS011;10817;55.820;13.030;2023-05-18T14:15:38;9.68;;;2.20;;
21315;SDS011;10817;55.820;13.030;2023-05-18T14:18:05;8.95;;;2.58;;
21315;SDS011;10817;55.820;13.030;2023-05-18T14:20:32;12.40;;;2.60;;
21315;SDS011;10817;55.820;13.030;2023-05-18T14:23:01;13.63;;;2.63;;
21315;SDS011;10817;55.820;13.030;2023-05-18T14:25:28;12.52;;;2.78;;
21315;SDS011;10817;55.820;13.030;2023-05-18T14:27:57;8.82;;;2.53;;
21315;SDS011;10817;55.820;13.030;2023-05-18T14:30:24;13.00;;;2.63;;
21315;SDS011;10817;55.820;13.030;2023-05-18T14:32:51;12.70;;;2.63;;
21315;SDS011;10817;55.820;13.030;2023-05-18T14:35:19;9.85;;;2.50;;
21315;SDS011;10817;55.820;13.030;2023-05-18T14:37:46;10.10;;;2.58;;
21315;SDS011;10817;55.820;13.030;2023-05-18T14:40:13;10.27;;;2.65;;